Time;durP1;ratioP1;P1;durP2;ratioP2;P2;SDS_P1;SDS_P2;PMS_P1;PMS_P2;Temp;Humidity;BMP_temperature;BMP_pressure;BME280_temperature;BME280_humidity;BME280_pressure;Samples;Min_cycle;Max_cycle;Signal;HPM_P1;HPM_P2
2021/08/08 00:02:00;;;;;;;6.67;4.47;;;;;;;18.84;62.92;99342.87;126781;1087;113944;-79
2021/08/08 00:04:48;;;;;;;5.40;4.47;;;;;;;18.86;62.68;99346.25;126774;1087;100866;-79
2021/08/08 00:07:36;;;;;;;5.53;4.63;;;;;;;18.87;62.76;99334.72;126683;1088;113049;-79
2021/08/08 00:10:24;;;;;;;5.17;4.63;;;;;;;18.87;63.13;99347.93;126790;1087;102856;-79
2021/08/08 00:13:13;;;;;;;6.27;4.60;;;;;;;18.86;63.15;99346.25;126662;1090;114092;-79
2021/08/08 00:16:01;;;;;;;4.65;4.20;;;;;;;18.85;63.08;99333.98;126846;1087;103015;-79
2021/08/08 00:18:48;;;;;;;6.20;5.17;;;;;;;18.84;63.31;99338.42;126709;1089;113016;-79
2021/08/08 00:21:37;;;;;;;5.80;4.63;;;;;;;18.80;63.52;99328.23;126725;1090;102925;-79
2021/08/08 00:24:25;;;;;;;6.47;4.90;;;;;;;18.77;63.70;99326.69;126725;1089;112906;-79
2021/08/08 00:27:13;;;;;;;5.47;4.87;;;;;;;18.76;63.59;99313.60;126790;1090;101787;-79
2021/08/08 00:30:01;;;;;;;6.33;4.97;;;;;;;18.75;63.68;99304.00;126717;1087;114062;-79
2021/08/08 00:32:49;;;;;;;6.33;4.73;;;;;;;18.75;64.33;99309.28;126755;1087;102856;-79
2021/08/08 00:35:50;;;;;;;6.57;4.60;;;;;;;18.74;64.39;99320.81;126726;1089;114138;-79
2021/08/08 00:38:43;;;;;;;6.93;5.40;;;;;;;18.73;64.53;99305.93;126766;1089;102859;-79
2021/08/08 00:41:31;;;;;;;5.70;4.70;;;;;;;18.71;64.78;99295.49;126768;1088;102940;-78
2021/08/08 00:44:19;;;;;;;7.20;5.30;;;;;;;18.71;64.93;99300.77;126723;1087;112833;-79
2021/08/08 00:47:07;;;;;;;8.07;4.97;;;;;;;18.73;65.29;99303.29;126796;1090;102895;-79
2021/08/08 00:49:55;;;;;;;5.73;5.17;;;;;;;18.76;64.86;99297.75;126675;1089;113148;-79
2021/08/08 00:52:44;;;;;;;5.25;4.75;;;;;;;18.77;65.00;99280.94;126767;1088;102895;-79
2021/08/08 00:55:32;;;;;;;6.77;4.80;;;;;;;18.78;64.60;99279.97;126750;1087;114086;-80
2021/08/08 00:58:21;;;;;;;6.97;4.57;;;;;;;18.80;65.48;99285.97;126777;1088;102840;-79
2021/08/08 01:01:20;;;;;;;8.13;4.60;;;;;;;18.84;65.24;99288.23;126568;1090;113130;-79
2021/08/08 01:04:12;;;;;;;7.10;4.90;;;;;;;18.86;65.11;99288.97;126851;1089;102847;-79
2021/08/08 01:07:08;;;;;;;7.10;4.90;;;;;;;18.86;65.45;99285.48;126738;1088;112890;-79
2021/08/08 01:10:00;;;;;;;5.47;4.40;;;;;;;18.87;65.60;99280.08;126890;1087;102936;-79
2021/08/08 01:12:51;;;;;;;5.57;5.07;;;;;;;18.86;65.81;99277.56;126754;1090;114829;-79
2021/08/08 01:15:42;;;;;;;7.47;4.80;;;;;;;18.86;65.71;99282.84;126810;1090;103160;-79
2021/08/08 01:18:32;;;;;;;6.13;4.73;;;;;;;18.86;66.15;99259.07;126688;1087;113246;-79
2021/08/08 01:21:23;;;;;;;6.43;4.63;;;;;;;18.88;66.19;99259.78;126783;1088;102772;-79
2021/08/08 01:24:12;;;;;;;5.50;4.53;;;;;;;18.91;65.97;99264.81;126703;1088;113186;-79
2021/08/08 01:27:02;;;;;;;6.40;4.83;;;;;;;18.95;66.19;99248.56;126814;1090;103076;-79
2021/08/08 01:29:55;;;;;;;5.10;4.60;;;;;;;18.97;66.47;99249.27;126723;1088;103024;-78
2021/08/08 01:32:43;;;;;;;6.33;5.30;;;;;;;18.99;66.49;99247.34;126752;1090;104115;-79
2021/08/08 01:35:31;;;;;;;6.00;5.40;;;;;;;19.00;66.75;99245.53;126836;1089;102904;-79
2021/08/08 01:38:21;;;;;;;7.93;5.20;;;;;;;18.97;66.55;99229.94;126700;1089;114142;-79
2021/08/08 01:41:17;;;;;;;6.47;5.00;;;;;;;18.94;66.44;99236.33;126792;1090;102904;-79
2021/08/08 01:44:11;;;;;;;8.73;5.60;;;;;;;18.91;66.56;99241.03;126674;1089;114165;-80
2021/08/08 01:47:02;;;;;;;6.33;5.10;;;;;;;18.88;66.61;99234.20;126859;1087;102734;-80
2021/08/08 01:49:52;;;;;;;5.87;5.27;;;;;;;18.85;67.38;99223.02;126646;1090;114242;-80
2021/08/08 01:52:43;;;;;;;6.90;4.60;;;;;;;18.83;67.40;99238.16;126757;1087;102885;-80
2021/08/08 01:55:35;;;;;;;7.00;5.20;;;;;;;18.82;67.25;99228.56;126704;1087;114141;-78
2021/08/08 01:58:27;;;;;;;7.57;5.70;;;;;;;18.81;67.47;99224.24;126807;1089;103051;-80
2021/08/08 02:01:18;;;;;;;6.77;5.17;;;;;;;18.77;67.54;99209.62;126649;1087;114093;-78
2021/08/08 02:04:18;;;;;;;7.43;5.53;;;;;;;18.76;67.55;99221.15;126798;1088;103062;-79
2021/08/08 02:07:18;;;;;;;7.40;5.20;;;;;;;18.73;67.39;99216.13;126723;1087;113134;-80
2021/08/08 02:10:09;;;;;;;;;;;;;;;18.67;67.49;99209.52;126866;1087;103052;-80
2021/08/08 02:12:57;;;;;;;6.78;5.08;;;;;;;18.61;67.98;99213.48;126671;1087;102900;-80
2021/08/08 02:15:46;;;;;;;6.10;5.20;;;;;;;18.57;67.89;99185.66;126820;1087;103033;-80
2021/08/08 02:18:35;;;;;;;9.03;5.60;;;;;;;18.56;68.14;99196.34;126678;1087;113089;-80
2021/08/08 02:21:24;;;;;;;6.07;5.47;;;;;;;18.49;68.31;99174.02;126801;1087;102901;-80
2021/08/08 02:24:14;;;;;;;7.83;5.37;;;;;;;18.45;68.04;99173.44;126785;1088;102855;-80
2021/08/08 02:27:07;;;;;;;7.10;5.67;;;;;;;18.43;68.54;99170.09;126791;1087;102955;-80
2021/08/08 02:29:55;;;;;;;6.17;5.33;;;;;;;18.42;68.51;99160.50;126783;1088;103132;-80
2021/08/08 02:32:43;;;;;;;7.20;5.80;;;;;;;18.39;68.44;99151.03;126723;1087;114355;-80
2021/08/08 02:35:31;;;;;;;5.97;5.37;;;;;;;18.36;68.55;99163.65;126914;1089;101635;-80
2021/08/08 02:38:18;;;;;;;;;;;;;;;18.31;68.79;99165.80;126671;1089;114052;-80
2021/08/08 02:41:08;;;;;;;7.48;5.70;;;;;;;18.24;69.07;99168.11;126886;1087;102972;-80
2021/08/08 02:43:57;;;;;;;7.08;6.00;;;;;;;18.17;69.29;99174.02;126806;1087;114107;-80
2021/08/08 02:46:46;;;;;;;6.87;5.57;;;;;;;18.09;69.44;99171.98;126817;1088;102942;-78
2021/08/08 02:49:35;;;;;;;8.90;5.67;;;;;;;18.03;69.90;99172.48;126656;1089;114029;-79
2021/08/08 02:52:25;;;;;;;7.23;5.47;;;;;;;17.98;69.75;99158.83;126786;1087;103075;-79
2021/08/08 02:55:14;;;;;;;6.17;5.53;;;;;;;17.93;70.01;99161.80;126683;1087;114189;-79
2021/08/08 02:58:08;;;;;;;6.90;5.40;;;;;;;17.87;70.32;99157.03;126766;1087;102927;-78
2021/08/08 03:00:57;;;;;;;7.47;5.70;;;;;;;17.85;70.61;99158.11;126686;1087;114162;-79
2021/08/08 03:03:45;;;;;;;9.50;5.20;;;;;;;17.81;70.74;99147.81;126821;1087;102975;-79
2021/08/08 03:06:34;;;;;;;8.27;5.33;;;;;;;17.81;70.87;99150.45;126775;1090;103025;-78
2021/08/08 03:09:22;;;;;;;7.87;5.50;;;;;;;17.80;70.99;99155.84;126733;1087;113763;-79
2021/08/08 03:12:10;;;;;;;6.73;5.23;;;;;;;17.79;71.19;99139.19;126748;1087;102855;-78
2021/08/08 03:15:01;;;;;;;6.87;5.53;;;;;;;17.80;71.63;99155.84;126661;1087;114109;-80
2021/08/08 03:17:49;;;;;;;7.83;4.87;;;;;;;17.78;72.32;99168.32;126799;1087;102931;-80
2021/08/08 03:20:38;;;;;;;6.83;5.13;;;;;;;17.84;71.46;99148.52;126688;1088;114072;-80
2021/08/08 03:23:27;;;;;;;6.30;5.30;;;;;;;17.87;71.49;99156.19;126748;1088;102851;-80
2021/08/08 03:26:15;;;;;;;9.07;5.13;;;;;;;17.90;71.62;99140.11;126701;1090;112924;-80
2021/08/08 03:29:03;;;;;;;5.93;5.10;;;;;;;17.92;71.57;99146.10;126850;1088;103385;-80
2021/08/08 03:31:52;;;;;;;6.40;4.70;;;;;;;17.95;71.76;99146.69;126718;1088;113897;-78
2021/08/08 03:34:42;;;;;;;6.97;5.33;;;;;;;17.99;71.87;99139.39;126800;1088;101149;-78
2021/08/08 03:37:30;;;;;;;6.47;4.80;;;;;;;18.03;71.96;99135.54;126695;1087;114705;-78
2021/08/08 03:40:18;;;;;;;7.10;4.60;;;;;;;18.08;71.84;99133.36;126835;1087;101908;-78
2021/08/08 03:43:07;;;;;;;6.37;4.03;;;;;;;18.14;71.68;99124.13;126726;1088;114287;-80
2021/08/08 03:45:55;;;;;;;5.87;4.87;;;;;;;18.20;71.65;99137.66;126823;1090;102839;-80
2021/08/08 03:48:45;;;;;;;5.20;4.37;;;;;;;18.30;71.03;99124.53;126914;1087;103031;-80
2021/08/08 03:51:34;;;;;;;6.93;4.30;;;;;;;18.36;71.41;99132.81;126738;1086;114242;-81
2021/08/08 03:54:22;;;;;;;6.60;4.17;;;;;;;18.46;71.07;99129.39;126923;1089;102656;-80
2021/08/08 03:57:10;;;;;;;6.77;4.37;;;;;;;18.54;70.72;99125.17;126730;1088;114066;-78
2021/08/08 03:59:58;;;;;;;6.30;4.30;;;;;;;18.61;70.32;99128.97;126872;1087;102967;-80
2021/08/08 04:02:47;;;;;;;8.30;4.67;;;;;;;18.64;70.42;99127.91;126734;1087;114084;-80
2021/08/08 04:05:39;;;;;;;7.37;4.20;;;;;;;18.68;70.17;99124.91;126795;1087;103078;-80
2021/08/08 04:08:27;;;;;;;6.20;4.53;;;;;;;18.70;70.31;99128.25;126776;1087;114273;-80
2021/08/08 04:11:15;;;;;;;8.17;4.40;;;;;;;18.73;70.09;99123.67;126769;1090;103473;-80
2021/08/08 04:14:03;;;;;;;6.33;4.30;;;;;;;18.71;70.06;99135.21;126800;1087;114239;-80
2021/08/08 04:16:52;;;;;;;8.00;4.70;;;;;;;18.71;70.31;99137.85;126847;1089;102882;-80
2021/08/08 04:19:40;;;;;;;4.90;4.30;;;;;;;18.70;70.20;99144.10;126782;1087;113173;-81
2021/08/08 04:22:27;;;;;;;5.13;4.20;;;;;;;18.69;70.95;99192.61;126881;1087;102971;-80
2021/08/08 04:25:16;;;;;;;5.65;4.25;;;;;;;18.63;70.95;99166.69;126704;1087;115568;-79
2021/08/08 04:28:06;;;;;;;5.30;4.10;;;;;;;18.55;72.21;99190.22;126913;1090;102849;-80
2021/08/08 04:30:55;;;;;;;4.63;4.13;;;;;;;18.44;72.17;99177.05;126935;1087;102845;-80
2021/08/08 04:33:44;;;;;;;6.37;4.80;;;;;;;18.31;72.16;99187.78;126705;1086;113770;-81
2021/08/08 04:36:32;;;;;;;5.70;4.87;;;;;;;18.20;73.24;99174.61;126853;1087;102669;-81
2021/08/08 04:39:20;;;;;;;7.87;4.40;;;;;;;18.11;73.77;99170.89;126837;1090;113900;-81
2021/08/08 04:42:07;;;;;;;;;;;;;;;18.04;73.83;99174.99;126928;1087;102824;-81
2021/08/08 04:44:55;;;;;;;6.43;4.53;;;;;;;17.98;74.22;99164.94;126768;1087;103001;-81
2021/08/08 04:47:42;;;;;;;;;;;;;;;17.94;74.41;99162.64;126804;1087;103402;-80
2021/08/08 04:50:33;;;;;;;6.50;4.20;;;;;;;17.91;74.23;99157.62;126747;1087;102626;-80
2021/08/08 04:53:20;;;;;;;4.90;4.40;;;;;;;17.88;74.46;99149.95;126890;1087;102898;-80
2021/08/08 04:56:09;;;;;;;4.90;3.97;;;;;;;17.89;74.43;99173.56;126807;1089;114005;-81
2021/08/08 04:58:57;;;;;;;5.13;3.80;;;;;;;17.85;74.50;99164.23;126848;1087;102981;-80
2021/08/08 05:01:45;;;;;;;6.10;3.83;;;;;;;17.87;74.70;99206.30;126680;1088;114313;-80
2021/08/08 05:04:34;;;;;;;4.80;4.27;;;;;;;17.90;75.29;99235.91;126892;1089;102955;-81
2021/08/08 05:07:23;;;;;;;5.27;4.13;;;;;;;17.89;74.98;99221.05;126789;1087;113924;-81
2021/08/08 05:10:14;;;;;;;9.47;6.50;;;;;;;17.91;74.97;99224.40;126909;1089;102873;-81
2021/08/08 05:13:03;;;;;;;6.05;5.20;;;;;;;17.95;75.22;99223.19;126895;1090;101788;-81
2021/08/08 05:15:52;;;;;;;5.97;4.40;;;;;;;18.01;75.20;99204.27;126631;1090;112732;-81
2021/08/08 05:18:40;;;;;;;6.97;4.40;;;;;;;18.03;75.00;99191.78;126850;1088;102667;-81
2021/08/08 05:21:29;;;;;;;6.10;5.33;;;;;;;18.02;75.08;99200.66;126809;1088;114155;-81
2021/08/08 05:24:19;;;;;;;6.17;4.47;;;;;;;18.01;75.01;99183.16;126882;1089;102831;-81
2021/08/08 05:27:07;;;;;;;6.73;4.80;;;;;;;18.03;75.13;99181.23;126655;1090;113018;-81
2021/08/08 05:29:55;;;;;;;5.27;4.23;;;;;;;18.03;74.80;99180.39;126720;1090;103028;-81
2021/08/08 05:32:43;;;;;;;4.57;4.13;;;;;;;18.03;75.67;99197.06;126778;1090;114054;-81
2021/08/08 05:35:31;;;;;;;6.47;4.80;;;;;;;18.01;75.85;99195.51;126872;1089;103303;-81
2021/08/08 05:38:20;;;;;;;6.27;4.30;;;;;;;17.97;75.62;99205.47;126787;1090;113960;-81
2021/08/08 05:41:08;;;;;;;5.30;4.20;;;;;;;17.91;75.44;99195.38;126821;1090;102859;-81
2021/08/08 05:43:56;;;;;;;;;;;;;;;17.93;75.64;99198.73;126790;1089;114261;-81
2021/08/08 05:46:43;;;;;;;8.37;3.90;;;;;;;17.97;75.47;99196.72;126856;1090;102718;-80
2021/08/08 05:49:33;;;;;;;6.63;5.07;;;;;;;18.01;75.90;99196.34;126748;1090;114702;-80
2021/08/08 05:52:22;;;;;;;6.37;4.40;;;;;;;18.07;75.76;99192.38;126786;1088;102978;-81
2021/08/08 05:55:10;;;;;;;6.90;4.30;;;;;;;18.11;75.95;99199.08;126933;1089;102847;-81
2021/08/08 05:57:58;;;;;;;4.93;4.10;;;;;;;18.17;75.73;99200.41;126715;1089;114115;-81
2021/08/08 06:00:45;;;;;;;;;;;;;;;18.20;75.61;99193.08;126923;1090;102913;-81
2021/08/08 06:03:34;;;;;;;6.50;4.40;;;;;;;18.24;75.98;99202.42;126878;1090;102678;-81
2021/08/08 06:06:22;;;;;;;6.57;4.40;;;;;;;18.25;75.79;99197.98;126823;1089;102850;-81
2021/08/08 06:09:10;;;;;;;6.73;4.33;;;;;;;18.29;75.77;99194.96;126760;1088;112915;-81
2021/08/08 06:11:58;;;;;;;5.03;4.20;;;;;;;18.33;76.10;99212.25;126798;1089;102843;-81
2021/08/08 06:14:46;;;;;;;7.33;4.60;;;;;;;18.41;75.62;99203.70;126772;1089;113317;-81
2021/08/08 06:17:35;;;;;;;5.43;4.37;;;;;;;18.47;75.64;99195.27;126921;1090;103349;-81
2021/08/08 06:20:24;;;;;;;6.57;4.10;;;;;;;18.59;75.69;99204.01;126752;1087;114281;-81
2021/08/08 06:23:13;;;;;;;4.80;4.30;;;;;;;18.69;75.29;99218.19;126866;1087;102980;-81
2021/08/08 06:26:01;;;;;;;7.07;4.47;;;;;;;18.85;75.21;99228.30;126705;1090;114437;-80
2021/08/08 06:28:48;;;;;;;4.90;4.40;;;;;;;19.13;74.77;99219.77;126923;1087;102866;-81
2021/08/08 06:31:36;;;;;;;4.57;4.17;;;;;;;19.56;74.25;99232.03;126824;1088;102867;-81
2021/08/08 06:34:26;;;;;;;4.83;4.00;;;;;;;20.23;72.88;99231.48;126884;1089;102840;-81
2021/08/08 06:37:14;;;;;;;6.00;4.57;;;;;;;20.84;71.55;99223.41;126882;1089;102994;-81
2021/08/08 06:40:03;;;;;;;7.47;4.07;;;;;;;21.40;70.07;99228.82;126679;1087;114038;-81
2021/08/08 06:42:51;;;;;;;5.23;4.10;;;;;;;21.66;69.00;99231.67;126809;1086;102849;-80
2021/08/08 06:45:41;;;;;;;4.37;3.73;;;;;;;21.94;68.78;99240.53;126765;1086;112824;-80
2021/08/08 06:48:34;;;;;;;3.93;3.53;;;;;;;21.85;67.56;99240.55;126807;1090;102927;-80
2021/08/08 06:51:22;;;;;;;4.07;3.23;;;;;;;21.66;67.82;99247.59;126750;1087;115043;-81
2021/08/08 06:54:12;;;;;;;5.87;3.73;;;;;;;21.46;68.04;99245.97;126810;1089;102934;-80
2021/08/08 06:57:01;;;;;;;4.50;3.50;;;;;;;21.23;68.22;99249.89;126784;1087;113970;-80
2021/08/08 06:59:49;;;;;;;4.57;3.43;;;;;;;21.11;68.25;99265.10;126843;1087;102885;-80
2021/08/08 07:02:37;;;;;;;4.55;3.80;;;;;;;21.00;69.19;99281.13;126707;1088;114559;-81
2021/08/08 07:05:26;;;;;;;4.60;3.60;;;;;;;20.92;69.57;99284.48;126774;1088;102849;-81
2021/08/08 07:08:14;;;;;;;7.47;3.90;;;;;;;20.79;69.29;99291.86;126770;1089;114192;-79
2021/08/08 07:11:02;;;;;;;5.60;3.63;;;;;;;20.62;69.64;99295.17;126809;1087;103007;-80
2021/08/08 07:13:50;;;;;;;7.03;4.13;;;;;;;20.44;69.98;99313.52;126849;1088;102652;-81
2021/08/08 07:16:38;;;;;;;6.53;4.37;;;;;;;20.30;70.55;99320.02;126763;1087;114108;-80
2021/08/08 07:19:26;;;;;;;5.43;4.50;;;;;;;20.18;71.38;99329.02;126861;1088;101827;-80
2021/08/08 07:22:16;;;;;;;4.23;3.83;;;;;;;20.05;71.92;99315.16;126744;1088;113898;-81
2021/08/08 07:25:05;;;;;;;7.70;4.70;;;;;;;19.97;71.74;99318.47;126886;1087;102647;-81
2021/08/08 07:27:54;;;;;;;6.07;4.93;;;;;;;19.95;71.58;99330.16;126735;1089;114100;-80
2021/08/08 07:30:43;;;;;;;7.37;4.97;;;;;;;19.88;72.07;99330.66;126746;1089;103026;-80
2021/08/08 07:33:30;;;;;;;6.43;5.07;;;;;;;19.85;72.05;99343.32;126706;1090;114291;-81
2021/08/08 07:36:19;;;;;;;5.97;5.37;;;;;;;19.79;72.17;99341.20;126803;1089;102855;-81
2021/08/08 07:39:08;;;;;;;6.97;6.27;;;;;;;19.76;72.74;99344.95;126621;1088;114145;-81
2021/08/08 07:41:55;;;;;;;12.20;6.53;;;;;;;19.73;72.79;99341.70;126936;1090;102959;-81
2021/08/08 07:44:43;;;;;;;7.10;6.33;;;;;;;19.67;72.80;99358.94;126793;1088;113200;-80
2021/08/08 07:47:34;;;;;;;8.00;6.73;;;;;;;19.64;72.66;99347.78;126928;1090;102914;-80
2021/08/08 07:50:22;;;;;;;7.17;6.20;;;;;;;19.60;73.21;99363.08;126738;1090;114069;-80
2021/08/08 07:53:11;;;;;;;8.60;7.00;;;;;;;19.54;73.26;99384.72;126964;1089;102948;-81
2021/08/08 07:55:59;;;;;;;7.63;6.80;;;;;;;19.49;73.29;99386.89;126762;1090;102847;-81
2021/08/08 07:58:48;;;;;;;9.80;7.77;;;;;;;19.44;73.17;99395.20;126761;1090;113934;-81
2021/08/08 08:01:38;;;;;;;9.00;8.00;;;;;;;19.40;73.14;99392.95;126934;1090;102921;-81
2021/08/08 08:04:27;;;;;;;8.47;7.67;;;;;;;19.32;73.43;99394.40;126776;1090;113996;-80
2021/08/08 08:07:17;;;;;;;9.10;8.20;;;;;;;19.20;73.75;99418.34;126839;1089;102919;-80
2021/08/08 08:10:06;;;;;;;9.77;7.80;;;;;;;19.07;73.82;99431.72;126749;1090;114006;-80
2021/08/08 08:12:53;;;;;;;8.87;7.23;;;;;;;18.96;73.75;99432.56;126890;1089;100634;-80
2021/08/08 08:15:42;;;;;;;8.27;7.47;;;;;;;18.90;73.50;99432.23;126818;1090;112866;-79
2021/08/08 08:18:29;;;;;;;8.63;6.83;;;;;;;18.90;73.48;99432.23;126911;1090;102654;-79
2021/08/08 08:21:17;;;;;;;7.33;5.77;;;;;;;18.95;73.85;99436.17;126855;1088;114091;-80
2021/08/08 08:24:05;;;;;;;7.33;6.17;;;;;;;19.00;73.56;99444.56;126822;1090;102847;-80
2021/08/08 08:26:52;;;;;;;6.80;6.10;;;;;;;19.05;73.51;99446.87;126805;1089;114258;-80
2021/08/08 08:29:40;;;;;;;6.57;5.83;;;;;;;19.04;73.47;99453.12;126917;1089;102955;-80
2021/08/08 08:32:28;;;;;;;6.70;5.47;;;;;;;19.03;73.39;99456.72;126799;1088;114140;-80
2021/08/08 08:35:16;;;;;;;6.47;5.30;;;;;;;18.98;73.20;99457.06;126995;1088;102650;-80
2021/08/08 08:38:03;;;;;;;4.97;4.53;;;;;;;18.94;73.04;99465.37;127016;1089;102846;-79
2021/08/08 08:40:53;;;;;;;5.10;4.60;;;;;;;18.88;73.16;99479.07;126720;1090;112834;-79
2021/08/08 08:43:43;;;;;;;4.20;3.80;;;;;;;18.86;72.91;99478.35;126849;1090;102899;-79
2021/08/08 08:46:34;;;;;;;3.50;3.20;;;;;;;18.83;72.49;99486.49;126781;1089;114064;-79
2021/08/08 08:49:25;;;;;;;3.60;3.30;;;;;;;18.81;72.44;99486.62;126957;1089;103001;-80
2021/08/08 08:52:23;;;;;;;2.90;2.60;;;;;;;18.84;72.55;99490.81;126786;1090;113942;-79
2021/08/08 08:55:11;;;;;;;3.53;2.40;;;;;;;18.91;72.23;99477.02;126794;1089;102909;-79
2021/08/08 08:57:59;;;;;;;2.47;2.27;;;;;;;18.97;72.09;99491.55;126747;1089;114139;-79
2021/08/08 09:00:48;;;;;;;2.23;2.03;;;;;;;19.02;71.83;99474.35;126806;1088;102710;-79
2021/08/08 09:03:37;;;;;;;2.40;2.07;;;;;;;19.07;72.08;99473.17;126709;1089;113896;-79
2021/08/08 09:06:25;;;;;;;1.87;1.67;;;;;;;19.09;72.14;99495.87;126848;1087;102902;-79
2021/08/08 09:09:15;;;;;;;2.30;1.43;;;;;;;19.07;71.55;99510.17;126672;1090;113085;-79
2021/08/08 09:12:05;;;;;;;1.40;1.30;;;;;;;19.06;71.62;99514.62;126786;1090;102892;-79
2021/08/08 09:15:03;;;;;;;1.50;1.27;;;;;;;19.02;71.56;99531.66;126605;1090;114244;-79
2021/08/08 09:18:21;;;;;;;1.60;1.50;;;;;;;19.01;71.49;99544.03;126691;1090;102991;-79
2021/08/08 09:21:27;;;;;;;1.83;1.30;;;;;;;19.06;71.73;99553.42;126679;1090;113933;-79
2021/08/08 09:24:34;;;;;;;1.50;1.40;;;;;;;19.10;71.44;99553.05;126877;1089;102959;-79
2021/08/08 09:27:34;;;;;;;1.30;1.20;;;;;;;19.23;71.07;99537.92;126713;1090;112932;-79
2021/08/08 09:30:23;;;;;;;1.27;1.17;;;;;;;19.35;70.93;99546.66;126773;1088;102881;-79
2021/08/08 09:33:14;;;;;;;1.50;1.23;;;;;;;19.43;70.18;99557.48;126671;1090;114359;-78
2021/08/08 09:36:02;;;;;;;1.73;1.40;;;;;;;19.49;69.84;99564.92;126689;1090;103207;-78
2021/08/08 09:38:51;;;;;;;1.23;1.13;;;;;;;19.51;69.84;99557.70;126699;1088;114342;-79
2021/08/08 09:41:39;;;;;;;1.50;1.30;;;;;;;19.51;69.96;99570.92;126845;1088;102888;-79
2021/08/08 09:44:26;;;;;;;2.73;1.37;;;;;;;19.54;69.96;99580.45;126718;1090;101774;-78
2021/08/08 09:47:14;;;;;;;1.30;1.20;;;;;;;19.61;69.60;99586.95;126795;1089;102874;-78
2021/08/08 09:50:06;;;;;;;1.43;1.23;;;;;;;19.66;69.72;99605.09;126794;1089;102644;-80
2021/08/08 09:52:56;;;;;;;2.93;1.30;;;;;;;19.73;69.69;99611.56;126869;1089;114094;-79
2021/08/08 09:55:44;;;;;;;1.60;1.50;;;;;;;19.74;69.81;99627.31;126884;1088;103038;-79
2021/08/08 09:58:39;;;;;;;3.00;1.37;;;;;;;19.79;69.27;99622.52;126771;1090;114130;-79
2021/08/08 10:01:27;;;;;;;1.40;1.20;;;;;;;19.87;69.48;99625.38;126838;1089;102860;-79
2021/08/08 10:04:15;;;;;;;1.90;1.53;;;;;;;19.94;69.01;99619.61;126786;1088;113990;-79
2021/08/08 10:07:04;;;;;;;2.13;1.70;;;;;;;19.94;68.91;99628.39;126923;1090;102878;-79
2021/08/08 10:09:56;;;;;;;2.97;1.63;;;;;;;19.95;68.91;99627.42;126866;1089;114144;-79
2021/08/08 10:13:07;;;;;;;3.10;2.23;;;;;;;19.92;68.87;99627.64;126884;1089;101236;-79
2021/08/08 10:15:58;;;;;;;2.10;1.90;;;;;;;19.92;69.30;99623.19;126840;1090;114349;-80
2021/08/08 10:19:00;;;;;;;3.53;2.07;;;;;;;20.00;69.18;99629.69;126949;1087;102943;-80
2021/08/08 10:21:49;;;;;;;2.40;1.77;;;;;;;20.12;69.29;99639.30;126719;1089;113102;-80
2021/08/08 10:24:39;;;;;;;3.00;2.33;;;;;;;20.33;68.76;99640.18;126999;1087;101391;-80
2021/08/08 10:27:29;;;;;;;3.47;2.20;;;;;;;20.57;68.01;99655.88;126710;1089;114291;-79
2021/08/08 10:30:18;;;;;;;1.87;1.60;;;;;;;20.85;66.99;99665.03;126824;1089;102966;-79
2021/08/08 10:33:07;;;;;;;4.20;2.07;;;;;;;21.09;66.81;99662.95;126751;1089;114190;-80
2021/08/08 10:35:54;;;;;;;2.50;1.97;;;;;;;21.29;65.66;99671.89;126801;1090;102862;-80
2021/08/08 10:38:42;;;;;;;2.70;1.60;;;;;;;21.53;65.66;99679.53;126676;1090;102893;-80
2021/08/08 10:41:29;;;;;;;2.30;1.70;;;;;;;21.67;64.71;99673.88;126716;1090;114417;-80
2021/08/08 10:44:20;;;;;;;;;;;;;;;21.96;64.51;99683.77;126845;1089;102844;-79
2021/08/08 10:47:08;;;;;;;1.60;1.50;;;;;;;22.54;64.07;99694.52;126729;1088;102842;-79
2021/08/08 10:50:08;;;;;;;2.50;1.50;;;;;;;22.81;62.74;99693.84;126706;1089;102969;-79
2021/08/08 10:52:55;;;;;;;2.47;1.40;;;;;;;22.94;60.79;99696.22;126721;1089;114097;-80
2021/08/08 10:55:44;;;;;;;1.67;1.50;;;;;;;22.98;60.84;99703.80;126812;1090;102903;-79
2021/08/08 10:58:35;;;;;;;1.70;1.43;;;;;;;23.18;60.89;99701.95;126763;1090;113125;-79
2021/08/08 11:01:23;;;;;;;2.97;1.77;;;;;;;23.53;59.92;99703.13;126901;1090;102842;-79
2021/08/08 11:04:12;;;;;;;1.50;1.40;;;;;;;23.64;58.57;99694.97;126732;1090;112986;-79
2021/08/08 11:07:05;;;;;;;1.63;1.53;;;;;;;23.80;58.72;99711.16;126792;1090;102937;-79
2021/08/08 11:09:53;;;;;;;2.07;1.40;;;;;;;23.86;58.44;99718.55;126736;1089;114273;-79
2021/08/08 11:12:41;;;;;;;2.37;1.40;;;;;;;23.81;58.07;99723.48;126968;1089;102885;-79
2021/08/08 11:15:34;;;;;;;1.77;1.50;;;;;;;23.62;57.67;99728.89;126712;1089;113006;-79
2021/08/08 11:18:30;;;;;;;2.53;2.20;;;;;;;23.33;57.93;99740.40;126884;1090;102975;-79
2021/08/08 11:21:18;;;;;;;3.80;1.80;;;;;;;23.05;58.34;99738.63;126807;1088;114237;-79
2021/08/08 11:24:10;;;;;;;2.63;1.80;;;;;;;22.94;58.47;99741.42;126926;1089;102860;-79
2021/08/08 11:26:58;;;;;;;2.05;1.60;;;;;;;22.90;59.02;99741.72;126740;1089;102987;-79
2021/08/08 11:29:51;;;;;;;3.37;1.77;;;;;;;22.89;58.37;99741.86;126733;1090;113748;-79
2021/08/08 11:32:41;;;;;;;2.10;1.60;;;;;;;22.80;58.59;99738.20;126823;1090;101735;-80
2021/08/08 11:35:30;;;;;;;3.00;1.80;;;;;;;22.70;59.17;99741.81;126731;1088;113203;-80
2021/08/08 11:38:20;;;;;;;2.17;1.90;;;;;;;22.53;59.39;99746.00;126812;1089;102941;-80
2021/08/08 11:41:08;;;;;;;3.40;1.70;;;;;;;22.34;59.89;99752.11;126702;1090;114178;-79
2021/08/08 11:44:09;;;;;;;1.80;1.70;;;;;;;22.21;59.84;99751.52;126851;1087;100423;-79
2021/08/08 11:47:25;;;;;;;2.23;1.80;;;;;;;22.11;60.69;99756.81;126737;1088;114092;-80
2021/08/08 11:50:13;;;;;;;2.33;2.13;;;;;;;22.38;60.19;99763.30;126784;1087;102875;-80
2021/08/08 11:53:04;;;;;;;2.90;2.20;;;;;;;22.64;60.26;99764.48;126606;1088;112851;-79
2021/08/08 11:55:51;;;;;;;2.47;2.10;;;;;;;22.79;59.40;99763.08;126805;1089;102870;-79
2021/08/08 11:58:54;;;;;;;2.27;2.07;;;;;;;22.80;59.83;99766.58;126751;1090;114166;-80
2021/08/08 12:01:42;;;;;;;2.23;1.80;;;;;;;22.67;59.27;99772.18;126878;1087;102884;-79
2021/08/08 12:04:32;;;;;;;2.33;2.13;;;;;;;22.52;59.73;99770.89;126696;1087;114142;-79
2021/08/08 12:07:22;;;;;;;2.87;2.10;;;;;;;22.39;60.00;99780.92;126778;1088;103306;-79
2021/08/08 12:10:12;;;;;;;2.53;2.00;;;;;;;22.26;59.59;99774.06;126726;1090;114236;-79
2021/08/08 12:13:01;;;;;;;3.93;1.97;;;;;;;22.17;59.56;99771.35;126949;1088;103030;-79
2021/08/08 12:15:52;;;;;;;3.07;1.77;;;;;;;22.14;59.77;99771.63;126700;1088;114288;-79
2021/08/08 12:18:40;;;;;;;2.60;2.20;;;;;;;22.08;59.32;99767.67;126803;1089;103365;-79
2021/08/08 12:21:34;;;;;;;2.90;1.90;;;;;;;22.00;59.46;99759.52;126649;1089;114191;-78
2021/08/08 12:24:32;;;;;;;2.17;1.97;;;;;;;21.99;59.78;99773.77;126699;1089;102921;-79
2021/08/08 12:27:35;;;;;;;3.23;2.60;;;;;;;21.98;59.49;99775.59;126614;1088;103036;-78
2021/08/08 12:30:28;;;;;;;2.67;2.30;;;;;;;22.01;59.06;99782.44;126784;1090;102874;-78
2021/08/08 12:33:19;;;;;;;2.67;2.33;;;;;;;22.01;59.62;99790.41;126808;1089;102935;-79
2021/08/08 12:36:12;;;;;;;2.90;1.90;;;;;;;22.01;59.62;99793.91;126687;1090;114146;-79
2021/08/08 12:39:00;;;;;;;3.60;2.10;;;;;;;22.09;59.23;99787.98;126856;1085;102974;-79
2021/08/08 12:41:48;;;;;;;2.70;2.17;;;;;;;22.19;58.99;99793.30;126696;1090;114157;-79
2021/08/08 12:44:38;;;;;;;3.27;2.97;;;;;;;22.26;58.95;99786.47;126906;1089;102951;-79
2021/08/08 12:47:34;;;;;;;3.80;2.57;;;;;;;22.58;59.17;99796.91;126604;1088;112943;-79
2021/08/08 12:50:22;;;;;;;2.50;2.30;;;;;;;22.80;58.78;99802.01;126796;1090;102943;-79
2021/08/08 12:53:10;;;;;;;2.87;2.47;;;;;;;22.88;58.55;99793.36;126688;1090;114189;-79
2021/08/08 12:55:59;;;;;;;3.20;2.70;;;;;;;22.90;58.27;99796.72;126858;1088;102855;-79
2021/08/08 12:58:49;;;;;;;2.20;2.00;;;;;;;22.89;57.58;99806.52;126778;1089;114170;-79
2021/08/08 13:01:41;;;;;;;2.53;2.33;;;;;;;22.93;57.98;99811.55;126719;1090;103329;-78
2021/08/08 13:04:29;;;;;;;3.40;2.37;;;;;;;22.97;57.71;99815.61;126669;1088;114295;-78